Bueyeros, New Mexico
Current Conditions -  °F | °C
As of 5:55 PM on Friday 19 Dec 2014 (Local Time) from KCAO Reporting Station
Clear Clear  
Wind Chill: 25°   Ceiling: Unl
Heat Index: 32°   Visibility: 10mi
Dew Point: 27°   Wind: 8mph
Humidity: 82%   Direction: 180°S
Pressure: 30.07"   Gusts: NA
Location:  36.2639°N, 103.376°W
Report Text: KCAO 200055Z AUTO 18007KT 10SM CLR 00/M03 A3007 RMK AO2 SLP204 T00001028
Loading
Personal Weather Stations






























Interactive Weather Map New forecast layout! Learn more

10-Day Weather Forecast

Advertisements
Track Severe Weather on mobile